Decoded Metar for UUDD (MOSCOW/DOMODEDOVO in RUSSIA) (IATA:N/A) | Meteo·Mobile Aviation Weather
aviador You're here:

UUDD Decoded Metar

MOSCOW/DOMODEDOVO in RUSSIA
Report Time2018-12-16 10:00:00
UTC Time2018-12-16 10:13:52
Flight Rules vfr VFR
WindVRB at 2 kt
Visibility8000 m
Phenomena:N/A
Clouds:Scattered 003 Hf
Expected CloudBase > 400 ft AGL from Temp-Dew spread
CeilingNone
Temp-12°C (ISA -26)
Dew Point-13°C (92% RH)
AAT-16.0°C
QNH1037 hPa
Density Alt-3,488 ft
Elevation551 ft
Report Wrong Elevation
Raw Report
UUDD 161000Z VRB01MPS 8000 SCT003 M12/M13 Q1037 R88/520194
NOSIG=

Extra information for UUDD:More info

Metar Taf Metar & Taf Last 4 Metars F.Rules Stats Wind Profile Meteogram Temp Stats Airport Information Weather charts Add Link Nearby VenuesMetar ALERT Operation Metar Decoded Social comments